Time;durP1;ratioP1;P1;durP2;ratioP2;P2;SDS_P1;SDS_P2;PMS_P1;PMS_P2;Temp;Humidity;BMP_temperature;BMP_pressure;BME280_temperature;BME280_humidity;BME280_pressure;Samples;Min_cycle;Max_cycle;Signal;HPM_P1;HPM_P2
2022/08/02 00:02:58;;;;;;;8.23;2.33;;;16.50;65.40;;;;;;9177484;19;20022;-65
2022/08/02 00:06:03;;;;;;;6.82;2.15;;;16.50;65.50;;;;;;9176187;19;20010;-66
2022/08/02 00:09:08;;;;;;;8.90;2.10;;;16.50;65.60;;;;;;9174689;19;20024;-66
2022/08/02 00:12:16;;;;;;;10.13;2.33;;;16.40;65.70;;;;;;9178215;19;20015;-66
2022/08/02 00:15:21;;;;;;;7.15;2.08;;;16.40;65.80;;;;;;9176104;19;20026;-66
2022/08/02 00:18:26;;;;;;;5.32;2.15;;;16.30;65.80;;;;;;9177612;19;20034;-67
2022/08/02 00:21:31;;;;;;;3.90;2.05;;;16.30;65.90;;;;;;9176255;19;20025;-66
2022/08/02 00:24:36;;;;;;;8.93;2.03;;;16.30;66.00;;;;;;9177550;19;20047;-66
2022/08/02 00:27:43;;;;;;;7.72;2.38;;;16.20;66.00;;;;;;9177384;19;20014;-65
2022/08/02 00:30:48;;;;;;;3.67;2.53;;;16.20;66.20;;;;;;9177012;19;20025;-67
2022/08/02 00:33:53;;;;;;;8.20;2.40;;;16.10;66.10;;;;;;9173999;19;20804;-66
2022/08/02 00:37:18;;;;;;;4.05;1.80;;;16.10;66.20;;;;;;9174191;19;20018;-66
2022/08/02 00:40:25;;;;;;;3.92;2.03;;;16.10;66.30;;;;;;9174640;19;20022;-67
2022/08/02 00:43:33;;;;;;;6.47;2.20;;;16.10;66.40;;;;;;9176153;19;20472;-66
2022/08/02 00:46:38;;;;;;;5.63;2.40;;;16.10;66.50;;;;;;9176895;19;20104;-66
2022/08/02 00:49:43;;;;;;;5.78;2.42;;;16.10;66.50;;;;;;9174491;19;20025;-67
2022/08/02 00:52:48;;;;;;;14.10;3.20;;;16.00;66.50;;;;;;9174808;19;20015;-67
2022/08/02 00:55:53;;;;;;;6.88;2.50;;;16.00;66.60;;;;;;9175580;19;20384;-67
2022/08/02 00:59:01;;;;;;;8.38;2.55;;;16.00;66.70;;;;;;9183739;19;20487;-66
2022/08/02 01:02:06;;;;;;;6.43;2.00;;;16.00;66.80;;;;;;9182837;19;20023;-66
2022/08/02 01:05:11;;;;;;;4.32;2.88;;;16.00;66.80;;;;;;9182434;19;20484;-66
2022/08/02 01:08:16;;;;;;;8.65;2.17;;;16.00;66.80;;;;;;9183538;19;20025;-65
2022/08/02 01:11:21;;;;;;;6.85;2.30;;;15.90;66.80;;;;;;9180354;19;20056;-68
2022/08/02 01:14:29;;;;;;;7.57;2.30;;;15.90;66.80;;;;;;9183178;19;20015;-66
2022/08/02 01:17:38;;;;;;;3.10;1.83;;;15.90;66.90;;;;;;9178927;19;20352;-68
2022/08/02 01:21:03;;;;;;;6.82;2.65;;;15.90;67.00;;;;;;9183024;19;20039;-66
2022/08/02 01:24:26;;;;;;;7.78;2.42;;;15.90;67.10;;;;;;9184660;19;20011;-67
2022/08/02 01:27:41;;;;;;;5.13;2.78;;;15.80;67.10;;;;;;9183805;19;20049;-67
2022/08/02 01:30:54;;;;;;;6.10;2.63;;;15.80;67.70;;;;;;9183389;19;20017;-67
2022/08/02 01:34:05;;;;;;;4.90;2.22;;;15.80;67.10;;;;;;9184041;19;20018;-67
2022/08/02 01:37:16;;;;;;;9.15;2.40;;;15.70;67.10;;;;;;9182926;19;20376;-66
2022/08/02 01:40:27;;;;;;;8.00;2.53;;;15.70;67.10;;;;;;9183823;19;20049;-65
2022/08/02 01:43:35;;;;;;;8.20;2.63;;;15.70;67.20;;;;;;9184345;19;20014;-67
2022/08/02 01:46:44;;;;;;;9.20;2.45;;;15.60;67.20;;;;;;9183881;19;20026;-64
2022/08/02 01:49:56;;;;;;;5.43;2.30;;;15.60;67.30;;;;;;9184548;19;20056;-67
2022/08/02 01:53:05;;;;;;;5.43;2.13;;;15.60;67.30;;;;;;9185065;19;20023;-67
2022/08/02 01:56:13;;;;;;;7.78;2.40;;;15.50;67.30;;;;;;9181867;19;20018;-67
2022/08/02 01:59:22;;;;;;;6.97;2.47;;;15.50;67.30;;;;;;9182837;19;20793;-66
2022/08/02 02:02:32;;;;;;;6.85;3.05;;;15.50;67.50;;;;;;9183528;19;20488;-67
2022/08/02 02:05:39;;;;;;;6.30;2.67;;;15.40;67.50;;;;;;9180718;19;20538;-68
2022/08/02 02:08:46;;;;;;;9.85;3.00;;;15.40;67.50;;;;;;9182774;19;20023;-67
2022/08/02 02:11:52;;;;;;;5.13;2.85;;;15.40;67.60;;;;;;9179072;19;20020;-67
2022/08/02 02:15:17;;;;;;;9.93;2.95;;;15.30;67.60;;;;;;9177705;19;20022;-67
2022/08/02 02:18:26;;;;;;;6.22;2.50;;;15.30;67.60;;;;;;9177637;19;20025;-65
2022/08/02 02:21:32;;;;;;;5.28;2.90;;;15.30;67.80;;;;;;9180542;19;20354;-68
2022/08/02 02:24:39;;;;;;;6.90;2.97;;;15.30;67.80;;;;;;9181182;19;20017;-67
2022/08/02 02:27:51;;;;;;;10.00;3.53;;;15.20;67.80;;;;;;9180539;19;20010;-66
2022/08/02 02:31:02;;;;;;;13.60;3.55;;;15.20;68.00;;;;;;9183067;19;20827;-65
2022/08/02 02:34:13;;;;;;;13.65;4.03;;;15.10;68.00;;;;;;9181298;19;20026;-66
2022/08/02 02:37:22;;;;;;;8.85;3.53;;;15.10;68.10;;;;;;9180671;19;20018;-65
2022/08/02 02:40:29;;;;;;;9.43;3.65;;;15.10;68.10;;;;;;9181353;19;20021;-68
2022/08/02 02:43:35;;;;;;;9.77;3.72;;;15.00;68.10;;;;;;9179305;19;20048;-67
2022/08/02 02:46:42;;;;;;;8.30;3.42;;;15.00;68.20;;;;;;9180168;19;20117;-66
2022/08/02 02:49:52;;;;;;;10.60;3.80;;;15.00;68.50;;;;;;9181812;19;20019;-68
2022/08/02 02:52:58;;;;;;;9.55;3.67;;;15.00;68.30;;;;;;9180531;19;20015;-66
2022/08/02 02:56:04;;;;;;;11.85;4.20;;;14.90;68.30;;;;;;9179446;19;20014;-66
2022/08/02 02:59:10;;;;;;;7.60;4.13;;;14.90;68.30;;;;;;9178492;19;20013;-68
2022/08/02 03:02:16;;;;;;;13.73;4.03;;;14.90;68.40;;;;;;9181097;19;20017;-66
2022/08/02 03:05:23;;;;;;;11.38;4.15;;;14.90;68.50;;;;;;9179387;19;20450;-67
2022/08/02 03:08:28;;;;;;;11.25;3.97;;;14.80;68.50;;;;;;9178991;19;20014;-66
2022/08/02 03:11:34;;;;;;;7.90;4.03;;;14.80;68.60;;;;;;9174106;19;20387;-66
2022/08/02 03:14:43;;;;;;;10.30;4.13;;;14.80;68.60;;;;;;9179931;19;20546;-66
2022/08/02 03:17:53;;;;;;;9.87;4.77;;;14.80;68.80;;;;;;9177139;19;20090;-67
2022/08/02 03:21:03;;;;;;;10.52;4.65;;;14.80;68.70;;;;;;9177757;19;20018;-68
2022/08/02 03:24:08;;;;;;;8.82;4.25;;;14.70;68.80;;;;;;9178009;19;20015;-66
2022/08/02 03:27:13;;;;;;;9.70;4.07;;;14.70;68.80;;;;;;9181298;19;20021;-67
2022/08/02 03:30:19;;;;;;;8.52;4.00;;;14.70;68.90;;;;;;9177603;19;20013;-67
2022/08/02 03:33:25;;;;;;;11.88;4.10;;;14.70;68.90;;;;;;9177331;19;20022;-66
2022/08/02 03:36:34;;;;;;;13.50;5.03;;;14.70;69.00;;;;;;9179495;19;20014;-65
2022/08/02 03:39:40;;;;;;;10.35;4.30;;;14.70;69.10;;;;;;9177995;19;20456;-66
2022/08/02 03:42:57;;;;;;;10.02;5.10;;;14.70;69.10;;;;;;9180086;19;20019;-66
2022/08/02 03:46:02;;;;;;;9.00;4.60;;;14.70;69.10;;;;;;9179453;19;20014;-66
2022/08/02 03:49:09;;;;;;;13.75;4.38;;;14.60;69.10;;;;;;9177965;19;20006;-65
2022/08/02 03:52:17;;;;;;;9.25;5.25;;;14.60;69.10;;;;;;9177261;19;20502;-66
2022/08/02 03:55:22;;;;;;;10.93;3.90;;;14.60;69.30;;;;;;9178184;19;20010;-66
2022/08/02 03:58:27;;;;;;;8.15;4.05;;;14.60;69.20;;;;;;9176234;19;20010;-67
2022/08/02 04:01:32;;;;;;;10.40;4.05;;;14.50;69.30;;;;;;9177986;19;20464;-66
2022/08/02 04:04:38;;;;;;;10.02;4.43;;;14.60;69.30;;;;;;9177595;19;20014;-67
2022/08/02 04:07:47;;;;;;;9.65;4.30;;;14.50;69.30;;;;;;9173887;19;20018;-68
2022/08/02 04:14:29;;;;;;;8.52;4.50;;;14.50;69.40;;;;;;9177640;19;20019;-68
2022/08/02 04:17:45;;;;;;;9.88;5.10;;;14.50;69.50;;;;;;9174625;19;20479;-66
2022/08/02 04:20:51;;;;;;;9.63;4.57;;;14.50;69.60;;;;;;9176640;19;20015;-66
2022/08/02 04:24:00;;;;;;;7.60;4.78;;;14.40;69.60;;;;;;9176816;19;20018;-66
2022/08/02 04:27:10;;;;;;;8.25;4.45;;;14.50;69.70;;;;;;9176573;19;20014;-67
2022/08/02 04:30:35;;;;;;;10.60;5.07;;;14.40;69.70;;;;;;9181699;19;20052;-66
2022/08/02 04:33:41;;;;;;;10.93;5.13;;;14.50;69.70;;;;;;9186167;19;20389;-67
2022/08/02 04:36:46;;;;;;;12.65;4.88;;;14.40;69.80;;;;;;9184959;19;20018;-67
2022/08/02 04:39:54;;;;;;;14.20;5.05;;;14.40;69.80;;;;;;9181929;19;20026;-66
2022/08/02 04:42:59;;;;;;;11.32;5.05;;;14.40;70.00;;;;;;9187393;19;20018;-67
2022/08/02 04:46:05;;;;;;;9.57;5.20;;;14.40;70.00;;;;;;9184515;19;20018;-66
2022/08/02 04:49:10;;;;;;;10.82;5.53;;;14.40;70.10;;;;;;9186139;19;20021;-67
2022/08/02 04:52:15;;;;;;;14.05;5.68;;;14.40;70.10;;;;;;9186420;19;20056;-66
2022/08/02 04:55:27;;;;;;;7.60;4.70;;;14.40;70.20;;;;;;9186170;19;20021;-65
2022/08/02 04:58:32;;;;;;;13.10;5.10;;;14.40;70.30;;;;;;9184363;19;20013;-66
2022/08/02 05:01:44;;;;;;;7.00;4.28;;;14.40;70.30;;;;;;9182509;19;20018;-67
2022/08/02 05:04:50;;;;;;;10.23;4.57;;;14.50;70.50;;;;;;9182536;19;20033;-66
2022/08/02 05:07:55;;;;;;;9.18;4.07;;;14.50;70.50;;;;;;9185241;19;20018;-66
2022/08/02 05:11:03;;;;;;;9.73;4.93;;;14.50;70.60;;;;;;9180686;19;20014;-65
2022/08/02 05:14:08;;;;;;;13.52;5.82;;;14.50;70.70;;;;;;9185633;19;20085;-66
2022/08/02 05:17:13;;;;;;;14.48;4.60;;;14.50;70.80;;;;;;9184788;19;20022;-66
2022/08/02 05:20:19;;;;;;;12.02;4.05;;;14.50;70.70;;;;;;9185452;19;20011;-65
2022/08/02 05:23:24;;;;;;;10.27;4.63;;;14.60;70.80;;;;;;9182281;19;20021;-65
2022/08/02 05:26:31;;;;;;;12.30;5.57;;;14.60;70.90;;;;;;9183201;19;20022;-66
2022/08/02 05:29:36;;;;;;;16.52;6.43;;;14.70;71.00;;;;;;9183603;19;20010;-66
2022/08/02 05:32:49;;;;;;;11.95;5.38;;;14.70;71.00;;;;;;9184072;19;20025;-68
2022/08/02 05:35:54;;;;;;;13.25;4.63;;;14.70;71.20;;;;;;9182975;19;20018;-66
2022/08/02 05:38:59;;;;;;;11.75;5.15;;;14.70;71.10;;;;;;9181341;19;20019;-67
2022/08/02 05:42:17;;;;;;;10.75;5.32;;;14.80;71.20;;;;;;9178727;19;20086;-66
2022/08/02 05:45:22;;;;;;;13.70;4.57;;;14.80;71.40;;;;;;9183258;19;20022;-66
2022/08/02 05:48:27;;;;;;;13.98;4.75;;;14.90;71.50;;;;;;9183717;19;20014;-66
2022/08/02 05:51:39;;;;;;;20.10;5.85;;;14.90;71.50;;;;;;9182155;19;20048;-67
2022/08/02 05:54:50;;;;;;;8.85;4.38;;;15.00;71.70;;;;;;9181372;19;20476;-66
2022/08/02 05:58:07;;;;;;;7.80;4.43;;;15.10;71.90;;;;;;9182676;19;20500;-66
2022/08/02 06:01:19;;;;;;;11.00;4.82;;;15.10;71.90;;;;;;9180918;19;20018;-66
2022/08/02 06:04:29;;;;;;;19.02;4.72;;;15.30;72.00;;;;;;9180225;19;20023;-64
2022/08/02 06:07:38;;;;;;;7.95;4.18;;;15.40;72.10;;;;;;9181521;19;20571;-65
2022/08/02 06:10:44;;;;;;;11.35;4.80;;;15.50;72.10;;;;;;9176729;19;20018;-65
2022/08/02 06:13:53;;;;;;;8.48;4.03;;;15.70;72.20;;;;;;9180550;19;20010;-67
2022/08/02 06:16:58;;;;;;;10.48;4.55;;;15.90;72.40;;;;;;9182708;19;20018;-65
2022/08/02 06:20:04;;;;;;;10.00;4.47;;;16.00;72.40;;;;;;9179768;19;20025;-65
2022/08/02 06:23:10;;;;;;;12.13;4.18;;;16.20;72.40;;;;;;9181729;19;20018;-66
2022/08/02 06:26:18;;;;;;;12.60;5.07;;;16.50;72.50;;;;;;9180214;19;20022;-65
2022/08/02 06:29:27;;;;;;;13.00;4.20;;;16.70;72.50;;;;;;9181546;19;20042;-65
2022/08/02 06:32:34;;;;;;;8.85;4.22;;;16.90;72.60;;;;;;9181879;19;20025;-66
2022/08/02 06:35:47;;;;;;;19.88;4.30;;;17.10;72.50;;;;;;9181698;19;20382;-65
2022/08/02 06:38:57;;;;;;;12.10;3.95;;;17.40;72.60;;;;;;9178994;19;20475;-66
2022/08/02 06:42:09;;;;;;;14.10;4.30;;;17.60;72.40;;;;;;9181383;19;20018;-66
2022/08/02 06:45:23;;;;;;;10.57;3.58;;;17.90;72.20;;;;;;9180009;19;20078;-66
2022/08/02 06:48:28;;;;;;;15.63;3.67;;;18.20;72.10;;;;;;9179738;19;20066;-66
2022/08/02 06:51:33;;;;;;;12.23;3.83;;;18.40;71.90;;;;;;9181549;19;20035;-66
2022/08/02 06:54:40;;;;;;;8.68;4.07;;;18.70;71.80;;;;;;9176098;19;20025;-66
2022/08/02 06:57:45;;;;;;;6.60;3.47;;;18.90;71.60;;;;;;9179206;19;20122;-67
2022/08/02 07:00:53;;;;;;;7.55;3.45;;;19.10;71.50;;;;;;9175933;19;20010;-66
2022/08/02 07:03:58;;;;;;;10.90;3.97;;;19.30;71.30;;;;;;9177454;19;20011;-66
2022/08/02 07:07:04;;;;;;;11.55;2.65;;;19.60;71.10;;;;;;9172489;19;20023;-66
2022/08/02 07:10:10;;;;;;;7.50;3.28;;;19.80;71.00;;;;;;9168337;19;20074;-67
2022/08/02 07:13:15;;;;;;;5.50;2.53;;;20.00;70.70;;;;;;9169903;19;20025;-67
2022/08/02 07:16:22;;;;;;;10.52;2.95;;;20.20;70.60;;;;;;9169982;19;20404;-66
2022/08/02 07:19:27;;;;;;;12.63;2.70;;;20.50;70.40;;;;;;9170235;19;20478;-66
2022/08/02 07:22:41;;;;;;;;;;;20.70;70.80;;;;;;9173307;19;20014;-68
2022/08/02 07:25:48;;;;;;;10.88;3.03;;;20.90;70.10;;;;;;9175517;19;20289;-67
2022/08/02 07:29:07;;;;;;;10.60;3.75;;;21.20;69.80;;;;;;9173113;19;20010;-66
2022/08/02 07:32:15;;;;;;;15.38;3.10;;;21.40;69.60;;;;;;9172584;19;20007;-68
2022/08/02 07:35:21;;;;;;;14.15;3.25;;;21.60;69.30;;;;;;9175112;19;20476;-67
2022/08/02 07:38:26;;;;;;;9.43;3.05;;;21.70;68.90;;;;;;9173151;19;20018;-66
2022/08/02 07:41:31;;;;;;;15.15;3.08;;;21.90;68.70;;;;;;9173632;19;20018;-67
2022/08/02 07:44:36;;;;;;;13.00;3.00;;;22.10;68.50;;;;;;9179085;19;20030;-66
2022/08/02 07:47:45;;;;;;;8.63;2.88;;;22.20;68.20;;;;;;9179246;19;20019;-67
2022/08/02 07:50:50;;;;;;;8.25;3.40;;;22.40;68.00;;;;;;9177896;19;20014;-67
2022/08/02 07:53:55;;;;;;;8.82;2.83;;;22.50;67.80;;;;;;9178816;19;20014;-68
2022/08/02 07:57:07;;;;;;;10.00;2.78;;;22.60;67.60;;;;;;9178953;19;20015;-67
2022/08/02 08:00:14;;;;;;;10.13;2.85;;;22.70;67.50;;;;;;9177015;19;20022;-66
2022/08/02 08:03:22;;;;;;;12.05;3.42;;;22.80;67.40;;;;;;9179321;19;20015;-67
2022/08/02 08:06:27;;;;;;;7.35;3.08;;;23.00;67.20;;;;;;9173067;19;20052;-67
2022/08/02 08:09:33;;;;;;;12.27;3.08;;;23.10;67.20;;;;;;9171493;19;20015;-67
2022/08/02 08:12:38;;;;;;;10.23;2.65;;;23.20;66.90;;;;;;9179015;19;20022;-67
2022/08/02 08:15:43;;;;;;;5.57;2.35;;;23.30;66.80;;;;;;9179364;19;20011;-68
2022/08/02 08:18:59;;;;;;;8.50;2.50;;;23.50;66.70;;;;;;9178191;19;20019;-67
2022/08/02 08:22:04;;;;;;;9.32;3.20;;;23.60;66.60;;;;;;9177000;19;20010;-67
2022/08/02 08:25:10;;;;;;;4.57;2.33;;;23.70;66.40;;;;;;9177798;19;20030;-68
2022/08/02 08:28:15;;;;;;;6.45;1.83;;;23.90;66.10;;;;;;9178980;19;20010;-68
2022/08/02 08:31:20;;;;;;;5.63;2.00;;;24.10;65.80;;;;;;9170384;19;20025;-69
2022/08/02 08:34:30;;;;;;;8.32;2.28;;;24.20;65.40;;;;;;9174147;19;20471;-69
2022/08/02 08:37:36;;;;;;;6.90;2.08;;;24.40;65.00;;;;;;9170225;19;20010;-68
2022/08/02 08:40:41;;;;;;;3.40;1.70;;;24.50;64.80;;;;;;9170436;19;20035;-69
2022/08/02 08:43:46;;;;;;;4.35;1.83;;;24.70;64.50;;;;;;9172938;19;20026;-68
2022/08/02 08:46:58;;;;;;;7.28;1.60;;;24.80;64.20;;;;;;9171813;19;20010;-68
2022/08/02 08:50:10;;;;;;;5.85;1.90;;;25.00;63.80;;;;;;9177076;19;20025;-69
2022/08/02 08:53:26;;;;;;;8.25;2.00;;;25.20;63.30;;;;;;9174970;19;20198;-70
2022/08/02 08:56:42;;;;;;;8.20;1.55;;;25.30;63.10;;;;;;9173146;19;20361;-69
2022/08/02 08:59:47;;;;;;;3.10;1.10;;;25.50;62.90;;;;;;9170121;19;20562;-70
2022/08/02 09:02:53;;;;;;;2.38;1.15;;;25.60;63.20;;;;;;9171506;19;20029;-67
2022/08/02 09:06:01;;;;;;;5.28;1.33;;;25.70;62.20;;;;;;9168383;19;20018;-69
2022/08/02 09:09:08;;;;;;;3.95;1.67;;;25.90;61.70;;;;;;9168883;19;20022;-68
2022/08/02 09:12:17;;;;;;;3.28;1.52;;;26.00;62.20;;;;;;9172428;19;20018;-68
2022/08/02 09:15:26;;;;;;;8.38;1.83;;;26.10;61.20;;;;;;9172660;19;20022;-71
2022/08/02 09:18:32;;;;;;;3.25;1.65;;;26.30;61.00;;;;;;9178044;19;20025;-71
2022/08/02 09:21:40;;;;;;;9.13;1.95;;;26.40;60.90;;;;;;9179842;19;20010;-69
2022/08/02 09:24:47;;;;;;;4.20;1.67;;;26.50;60.50;;;;;;9182853;19;20037;-70
2022/08/02 09:27:53;;;;;;;6.32;1.90;;;26.70;60.50;;;;;;9183050;19;20025;-70
2022/08/02 09:30:59;;;;;;;11.52;1.90;;;26.80;60.60;;;;;;9177786;19;20022;-70
2022/08/02 09:34:04;;;;;;;7.18;2.00;;;26.90;60.40;;;;;;9183328;19;20360;-72
2022/08/02 09:37:23;;;;;;;9.82;2.45;;;27.10;60.20;;;;;;9186260;19;20015;-72
2022/08/02 09:40:37;;;;;;;3.97;1.83;;;27.20;59.80;;;;;;9179853;19;20011;-74
2022/08/02 09:43:43;;;;;;;;;;;27.30;59.70;;;;;;9181666;19;20345;-71
2022/08/02 09:47:16;;;;;;;13.40;3.15;;;27.40;60.30;;;;;;9179410;19;19926;-69
2022/08/02 09:50:21;;;;;;;5.45;2.50;;;27.60;60.00;;;;;;9169918;19;20018;-72
2022/08/02 09:53:29;;;;;;;7.75;2.72;;;27.70;60.00;;;;;;9169564;19;20018;-71
2022/08/02 09:56:44;;;;;;;6.72;2.17;;;27.70;59.70;;;;;;9170720;19;20484;-68
2022/08/02 09:59:54;;;;;;;7.00;3.03;;;27.80;59.40;;;;;;9172729;19;20387;-70
2022/08/02 10:03:10;;;;;;;8.63;2.25;;;27.90;59.30;;;;;;9169110;19;20018;-70
2022/08/02 10:06:26;;;;;;;4.70;2.28;;;27.90;59.10;;;;;;9170483;19;20044;-68
2022/08/02 10:09:34;;;;;;;7.05;2.83;;;28.00;59.30;;;;;;9168254;19;20890;-74
2022/08/02 10:12:46;;;;;;;6.15;2.58;;;28.10;59.20;;;;;;9169136;19;20022;-74
2022/08/02 10:15:51;;;;;;;3.25;2.25;;;28.10;59.10;;;;;;9171307;19;20375;-73
2022/08/02 10:19:00;;;;;;;8.13;2.67;;;28.20;59.00;;;;;;9173586;19;20464;-70
2022/08/02 10:22:07;;;;;;;4.00;2.72;;;28.20;58.80;;;;;;9169267;19;20021;-69
2022/08/02 10:25:16;;;;;;;6.85;2.72;;;28.30;58.80;;;;;;9171498;19;20474;-72
2022/08/02 10:28:25;;;;;;;4.28;2.42;;;28.30;58.80;;;;;;9168023;19;20014;-72
2022/08/02 10:31:36;;;;;;;6.38;2.33;;;28.40;59.00;;;;;;9170961;19;20033;-72
2022/08/02 10:34:46;;;;;;;5.20;2.58;;;28.50;59.00;;;;;;9171030;19;20677;-74
2022/08/02 10:37:56;;;;;;;;;;;28.60;59.50;;;;;;9177210;19;20015;-70
2022/08/02 10:41:03;;;;;;;5.93;2.17;;;28.70;59.30;;;;;;9178737;19;19926;-68
2022/08/02 10:44:08;;;;;;;3.38;2.08;;;28.80;59.00;;;;;;9180984;19;20022;-71
2022/08/02 10:47:28;;;;;;;2.78;2.28;;;28.90;58.90;;;;;;9180644;19;20081;-69
2022/08/02 10:50:55;;;;;;;4.13;1.83;;;29.00;58.80;;;;;;9182684;19;20014;-71
2022/08/02 10:54:10;;;;;;;5.22;2.33;;;29.10;58.30;;;;;;9178847;19;20396;-69
2022/08/02 10:57:23;;;;;;;6.57;2.22;;;29.20;58.10;;;;;;9178588;19;20011;-70
2022/08/02 11:00:29;;;;;;;4.28;1.83;;;29.30;57.90;;;;;;9178952;19;20019;-72
2022/08/02 11:03:42;;;;;;;4.53;2.20;;;29.40;57.80;;;;;;9177788;19;20361;-72
2022/08/02 11:07:09;;;;;;;4.45;1.70;;;29.40;57.40;;;;;;9179342;19;20002;-71
2022/08/02 11:10:34;;;;;;;5.53;2.00;;;29.50;57.30;;;;;;9171892;19;20018;-68
2022/08/02 11:14:07;;;;;;;4.07;1.95;;;29.50;57.20;;;;;;9176040;19;20020;-68
2022/08/02 11:17:15;;;;;;;4.40;1.80;;;29.60;57.10;;;;;;9177268;19;20484;-68
2022/08/02 11:20:21;;;;;;;5.82;1.60;;;29.60;57.10;;;;;;9178510;19;20503;-68
2022/08/02 11:23:38;;;;;;;3.47;1.67;;;29.60;56.90;;;;;;9176612;19;20025;-72
2022/08/02 11:26:49;;;;;;;6.20;1.80;;;29.60;56.30;;;;;;9178966;19;20052;-71
2022/08/02 11:29:57;;;;;;;3.22;1.73;;;29.60;56.50;;;;;;9173986;19;20018;-71
2022/08/02 11:33:02;;;;;;;3.45;1.52;;;29.60;56.20;;;;;;9169605;19;20734;-70
2022/08/02 11:36:08;;;;;;;7.13;1.58;;;29.60;56.10;;;;;;9175293;19;20019;-70
2022/08/02 11:39:15;;;;;;;8.73;2.22;;;29.60;55.90;;;;;;9174419;19;20484;-71
2022/08/02 11:42:20;;;;;;;3.80;1.83;;;29.60;55.90;;;;;;9174142;19;20014;-73
2022/08/02 11:45:29;;;;;;;3.47;1.80;;;29.60;55.80;;;;;;9179989;19;20396;-70
2022/08/02 11:48:35;;;;;;;5.70;1.73;;;29.60;55.50;;;;;;9164445;19;20018;-69
2022/08/02 11:51:40;;;;;;;8.02;2.03;;;29.60;55.60;;;;;;9175280;19;20018;-71
2022/08/02 11:54:46;;;;;;;4.90;2.03;;;29.60;55.50;;;;;;9173221;19;20070;-70
2022/08/02 11:57:59;;;;;;;7.10;1.88;;;29.60;55.40;;;;;;9176125;19;20090;-71
2022/08/02 12:01:11;;;;;;;2.85;1.50;;;29.70;55.30;;;;;;9172987;19;20028;-69
2022/08/02 12:04:21;;;;;;;2.92;1.92;;;29.70;55.10;;;;;;9178832;19;20018;-70
2022/08/02 12:07:31;;;;;;;4.20;1.90;;;29.70;55.50;;;;;;9167022;19;20018;-69
2022/08/02 12:10:49;;;;;;;2.60;1.70;;;29.80;55.50;;;;;;9172688;19;20018;-69
2022/08/02 12:13:54;;;;;;;2.00;1.40;;;29.80;54.70;;;;;;9179623;19;20017;-70
2022/08/02 12:20:21;;;;;;;2.85;1.40;;;29.90;54.60;;;;;;9179410;19;20018;-72
2022/08/02 12:23:26;;;;;;;2.72;1.35;;;29.90;54.60;;;;;;9171949;19;20018;-71
2022/08/02 12:26:31;;;;;;;7.28;1.60;;;29.90;54.40;;;;;;9169172;19;20027;-71
2022/08/02 12:29:38;;;;;;;2.95;1.30;;;29.90;54.20;;;;;;9169573;19;20027;-72
2022/08/02 12:33:12;;;;;;;2.92;1.23;;;30.00;54.10;;;;;;9164054;19;20107;-71
2022/08/02 12:36:18;;;;;;;3.35;1.40;;;30.00;53.80;;;;;;9168258;19;20015;-71
2022/08/02 12:39:23;;;;;;;3.88;1.15;;;30.00;53.90;;;;;;9168900;19;20768;-72
2022/08/02 12:42:48;;;;;;;9.32;1.75;;;30.00;53.80;;;;;;9166846;19;20039;-71
2022/08/02 12:45:56;;;;;;;1.30;0.85;;;30.00;53.40;;;;;;9169602;19;20014;-71
2022/08/02 12:49:15;;;;;;;1.90;1.20;;;30.10;53.50;;;;;;9164338;19;20018;-72
2022/08/02 12:52:23;;;;;;;2.75;0.88;;;30.10;53.20;;;;;;9175669;19;20045;-70
2022/08/02 12:55:28;;;;;;;2.20;1.00;;;30.10;53.20;;;;;;9174525;19;20030;-73
2022/08/02 12:58:53;;;;;;;4.35;1.00;;;30.10;53.00;;;;;;9180517;19;20022;-72
2022/08/02 13:02:04;;;;;;;2.22;1.05;;;30.20;53.10;;;;;;9180749;19;20015;-71
2022/08/02 13:05:12;;;;;;;3.75;1.25;;;30.20;52.70;;;;;;9175524;19;20022;-69
2022/08/02 13:08:17;;;;;;;3.22;1.05;;;30.30;52.60;;;;;;9173445;19;20018;-70
2022/08/02 13:11:22;;;;;;;3.78;0.95;;;30.30;52.60;;;;;;9173218;19;20112;-71
2022/08/02 13:14:27;;;;;;;1.67;0.80;;;30.40;52.40;;;;;;9171724;19;19998;-70
2022/08/02 13:17:32;;;;;;;4.70;1.60;;;30.40;52.30;;;;;;9174575;19;20029;-71
2022/08/02 13:20:40;;;;;;;1.23;0.98;;;30.50;52.20;;;;;;9175316;19;20026;-70
2022/08/02 13:23:49;;;;;;;1.23;0.98;;;30.60;51.90;;;;;;9168716;19;20025;-70
2022/08/02 13:26:58;;;;;;;2.88;1.27;;;30.60;51.90;;;;;;9172526;19;20018;-69
2022/08/02 13:30:10;;;;;;;4.35;1.02;;;30.60;51.90;;;;;;9171194;19;20042;-71
2022/08/02 13:33:15;;;;;;;1.48;1.10;;;30.60;51.70;;;;;;9172365;19;20026;-71
2022/08/02 13:36:22;;;;;;;3.17;1.42;;;30.60;51.60;;;;;;9174542;19;20030;-71
2022/08/02 13:39:27;;;;;;;2.00;0.98;;;30.60;51.60;;;;;;9173036;19;20018;-71
2022/08/02 13:42:32;;;;;;;6.10;1.30;;;30.50;51.50;;;;;;9170866;19;20022;-71
2022/08/02 13:45:37;;;;;;;3.85;1.48;;;30.50;51.60;;;;;;9177782;19;20939;-70
2022/08/02 13:48:42;;;;;;;1.90;1.17;;;30.40;51.60;;;;;;9173055;19;20018;-69
2022/08/02 13:51:50;;;;;;;1.33;1.23;;;30.40;51.60;;;;;;9172139;19;20018;-70
2022/08/02 13:54:55;;;;;;;2.70;1.10;;;30.30;51.50;;;;;;9174669;19;20018;-69
2022/08/02 13:58:00;;;;;;;2.78;1.00;;;30.40;51.60;;;;;;9172273;19;20021;-71
2022/08/02 14:01:05;;;;;;;1.50;1.17;;;30.30;51.40;;;;;;9174971;19;20026;-70
2022/08/02 14:04:10;;;;;;;1.60;1.08;;;30.30;52.00;;;;;;9165368;19;20483;-70
2022/08/02 14:07:18;;;;;;;1.08;0.88;;;30.30;51.40;;;;;;9170095;19;20021;-70
2022/08/02 14:10:24;;;;;;;2.90;1.30;;;30.20;51.00;;;;;;9169922;19;20022;-72
2022/08/02 14:13:34;;;;;;;1.52;1.05;;;30.20;51.10;;;;;;9176348;19;20099;-70
2022/08/02 14:16:40;;;;;;;2.03;0.95;;;30.10;51.00;;;;;;9175291;19;20049;-72
2022/08/02 14:19:45;;;;;;;1.05;0.95;;;30.10;51.10;;;;;;9172005;19;20655;-72
2022/08/02 14:22:53;;;;;;;1.30;1.20;;;30.00;51.10;;;;;;9173910;19;20018;-72
2022/08/02 14:25:58;;;;;;;2.90;1.20;;;30.00;51.20;;;;;;9174264;19;20014;-73
2022/08/02 14:29:03;;;;;;;1.98;1.08;;;30.00;51.20;;;;;;9177600;19;20018;-71
2022/08/02 14:32:09;;;;;;;5.05;1.10;;;29.90;51.10;;;;;;9172582;19;20022;-72
2022/08/02 14:35:15;;;;;;;2.40;1.17;;;30.00;51.20;;;;;;9174864;19;20022;-73
2022/08/02 14:38:23;;;;;;;1.83;1.10;;;30.00;51.20;;;;;;9171863;19;20362;-74
2022/08/02 14:41:35;;;;;;;1.52;1.10;;;30.00;50.90;;;;;;9167769;19;20023;-73
2022/08/02 14:45:00;;;;;;;4.60;2.00;;;30.00;50.90;;;;;;9169085;19;20078;-74
2022/08/02 14:48:06;;;;;;;2.65;1.20;;;30.10;51.00;;;;;;9170373;19;20037;-75
2022/08/02 14:51:12;;;;;;;4.18;1.20;;;30.20;50.90;;;;;;9164599;19;20662;-74
2022/08/02 14:54:20;;;;;;;1.85;1.20;;;30.20;50.70;;;;;;9171784;19;20015;-72
2022/08/02 14:57:34;;;;;;;2.28;0.98;;;30.20;50.30;;;;;;9171776;19;20014;-74
2022/08/02 15:00:40;;;;;;;4.38;1.08;;;30.20;50.30;;;;;;9163673;19;20057;-75
2022/08/02 15:03:47;;;;;;;2.97;1.08;;;30.20;50.10;;;;;;9167586;19;20019;-76
2022/08/02 15:06:55;;;;;;;1.50;1.10;;;30.10;50.10;;;;;;9166189;19;20018;-73
2022/08/02 15:10:03;;;;;;;2.53;1.08;;;30.00;49.90;;;;;;9168834;19;20023;-75
2022/08/02 15:13:08;;;;;;;2.38;1.25;;;30.00;49.90;;;;;;9174661;19;21051;-75
2022/08/02 15:16:14;;;;;;;6.30;1.38;;;29.90;49.90;;;;;;9175316;19;20947;-78
2022/08/02 15:19:19;;;;;;;2.08;1.10;;;29.90;50.00;;;;;;9178213;19;20025;-75
2022/08/02 15:22:24;;;;;;;1.35;1.00;;;29.90;50.00;;;;;;9172990;19;20018;-75
2022/08/02 15:25:32;;;;;;;4.15;1.30;;;29.90;49.90;;;;;;9177931;19;20014;-74
2022/08/02 15:28:43;;;;;;;1.83;1.30;;;29.80;49.60;;;;;;9168196;19;20021;-73
2022/08/02 15:31:49;;;;;;;1.77;1.20;;;29.80;49.70;;;;;;9174191;19;20022;-72
2022/08/02 15:34:54;;;;;;;3.38;1.33;;;29.80;49.60;;;;;;9165088;19;20038;-70
2022/08/02 15:37:59;;;;;;;4.47;1.15;;;29.80;49.50;;;;;;9176911;19;20018;-71
2022/08/02 15:41:07;;;;;;;3.17;1.20;;;29.80;49.40;;;;;;9178329;19;20501;-70
2022/08/02 15:44:12;;;;;;;1.65;0.82;;;29.80;49.30;;;;;;9172128;19;20011;-71
2022/08/02 15:47:17;;;;;;;1.77;0.73;;;29.90;49.30;;;;;;9178843;19;20010;-70
2022/08/02 15:50:22;;;;;;;3.97;1.00;;;29.90;49.30;;;;;;9177387;19;20030;-71
2022/08/02 15:53:27;;;;;;;4.25;1.08;;;29.90;49.20;;;;;;9179393;19;20805;-71
2022/08/02 15:56:35;;;;;;;1.60;0.90;;;29.90;49.00;;;;;;9181095;19;20026;-72
2022/08/02 15:59:40;;;;;;;1.05;0.75;;;29.90;48.70;;;;;;9178982;19;20021;-72
2022/08/02 16:02:45;;;;;;;1.33;0.80;;;29.90;48.70;;;;;;9180067;19;20011;-72
2022/08/02 16:05:51;;;;;;;2.33;0.90;;;29.90;48.60;;;;;;9178798;19;20052;-71
2022/08/02 16:08:56;;;;;;;1.10;0.90;;;29.90;48.40;;;;;;9176563;19;20356;-68
2022/08/02 16:12:05;;;;;;;1.05;0.80;;;29.90;48.40;;;;;;9172424;19;20021;-73
2022/08/02 16:15:11;;;;;;;1.05;0.75;;;29.80;48.20;;;;;;9179322;19;20038;-71
2022/08/02 16:18:16;;;;;;;2.13;1.00;;;29.80;48.20;;;;;;9175778;19;20026;-74
2022/08/02 16:21:22;;;;;;;2.13;0.93;;;29.80;48.20;;;;;;9178000;19;20010;-72
2022/08/02 16:24:27;;;;;;;1.17;0.90;;;29.70;48.10;;;;;;9175275;19;20011;-72
2022/08/02 16:27:35;;;;;;;1.60;1.00;;;29.70;48.10;;;;;;9185452;19;20021;-73